11:04
Airports
History
Links
Donate
Help keep this website running!
PayPal
Bitcoin
Information on this page is community maintained and may be outdated or inaccurate and is intended for reference only or PC simulator navigating!
Always use approved charts for navigating.
LFKC
St Catherine
St Catherine (LFKC)
Calvi, Corse, France (20260)
(C)
Lat/Lng:42° 31' 50.74" N / 8° 47' 34.53" E
42.530762 / 8.792925
Elevation:208'ft 63mMSL
ID / ICAO:LFKC
Runways:1
Longest:(18-36) 2,317.4m 7,603ft Concrete
Controlled:Yes
Distance To
Airport ID:
Airport Radio Frequencies
LFKC ATIS: 131.17
Ground: 121.7
Tower: 120.8, 123.2
Approach: 123.82
Nearby VORs <50NM
Nearby NDBs
METARUpdated 04-30-17 10:30 GMT
Altimeter: 29.94
Visibility: 6.2 statute miles
Wind: 9 knots (340°)
Temp: 18°c 64°f
Humidity: 48.5%

METAR: LFKC 301030Z 34009KT 310V020 9999 FEW056 18/07 Q1014 NOSIG

(Powered by phpweather)
Runway 18 / 36
Dimensions:2317.4 x 39.9m 7603' x 131'ft
Surface:Concrete
Edge Lights:Medium intensity
Runway 18 [A]Runway 36 [B]
Heading:179°TH 359°TH
Lat:
Lng:
42° 32' 28.21"N
8° 47' 34.18"E
42° 31' 13.27"N
8° 47' 34.88"E
Google Map
Nearby Airports
(C) Corte 26.1 NM
LFKT SE 129°
(C) Bastia Poretta 35.2 NM
LFKB (WX) E 87°
(C) Moriani Plage 38.9 NM
2021 ESE 107°
(C) Napoleon Bonaparte 42.1 NM
LFKJ (WX) S 179°
(U) GHISONACCIA ALZITONE 45.3 NM
LFKG SE 136°
(C) Solenzara 52.3 NM
LFKS (WX) SE 143°
(C) Propriano 60.3 NM
LFKO S 175°
VFR Chart
Flight Planning at SkyVector.com